createdAt,value
2022-12-15T00:01:34.227Z,-8.35
2022-12-15T00:04:38.334Z,-8.35
2022-12-15T00:07:42.341Z,-8.27
2022-12-15T00:10:47.029Z,-8.29
2022-12-15T00:13:50.931Z,-8.16
2022-12-15T00:16:55.413Z,-8.19
2022-12-15T00:19:59.566Z,-8.36
2022-12-15T00:23:03.547Z,-8.26
2022-12-15T00:26:07.530Z,-8.32
2022-12-15T00:29:11.502Z,-8.51
2022-12-15T00:32:15.256Z,-8.76
2022-12-15T00:35:19.147Z,-8.60
2022-12-15T00:38:32.499Z,-8.73
2022-12-15T00:41:18.928Z,-8.75
2022-12-15T00:44:04.584Z,-8.70
2022-12-15T00:46:56.340Z,-8.69
2022-12-15T00:50:00.527Z,-8.53
2022-12-15T00:53:04.653Z,-8.44
2022-12-15T00:56:08.798Z,-8.55
2022-12-15T00:59:13.566Z,-8.76
2022-12-15T01:02:18.243Z,-8.63
2022-12-15T01:05:22.900Z,-8.72
2022-12-15T01:08:26.998Z,-8.83
2022-12-15T01:11:31.551Z,-8.97
2022-12-15T01:14:35.428Z,-9.15
2022-12-15T01:17:39.629Z,-9.20
2022-12-15T01:20:25.529Z,-9.15
2022-12-15T01:23:10.818Z,-9.07
2022-12-15T01:25:56.154Z,-9.19
2022-12-15T01:28:41.588Z,-8.96
2022-12-15T01:31:26.973Z,-8.91
2022-12-15T01:34:12.444Z,-8.70
2022-12-15T01:36:57.889Z,-8.78
2022-12-15T01:40:02.417Z,-8.79
2022-12-15T01:42:47.797Z,-8.87
2022-12-15T01:45:41.964Z,-8.65
2022-12-15T01:48:30.143Z,-8.70
2022-12-15T01:51:25.928Z,-8.87
2022-12-15T01:54:16.902Z,-8.93
2022-12-15T01:57:06.978Z,-8.78
2022-12-15T02:00:01.979Z,-8.95
2022-12-15T02:02:47.922Z,-8.91
2022-12-15T02:05:35.118Z,-8.87
2022-12-15T02:08:21.015Z,-8.96
2022-12-15T02:11:20.080Z,-8.83
2022-12-15T02:14:10.875Z,-9.00
2022-12-15T02:17:25.538Z,-8.96
2022-12-15T02:20:47.278Z,-8.88
2022-12-15T02:24:04.563Z,-8.83
2022-12-15T02:27:13.486Z,-8.70
2022-12-15T02:30:11.691Z,-8.82
2022-12-15T02:33:11.390Z,-8.83
2022-12-15T02:36:04.339Z,-8.77
2022-12-15T02:38:50.088Z,-8.63
2022-12-15T02:41:39.133Z,-8.64
2022-12-15T02:44:33.541Z,-8.62
2022-12-15T02:47:46.085Z,-8.62
2022-12-15T02:50:50.010Z,-8.58
2022-12-15T02:54:04.506Z,-8.61
2022-12-15T02:57:11.357Z,-8.59
2022-12-15T03:00:02.259Z,-8.62
2022-12-15T03:02:51.770Z,-8.76
2022-12-15T03:05:37.818Z,-8.55
2022-12-15T03:08:23.835Z,-8.55
2022-12-15T03:11:09.221Z,-8.51
2022-12-15T03:13:55.056Z,-8.50
2022-12-15T03:16:40.419Z,-8.51
2022-12-15T03:19:25.893Z,-8.31
2022-12-15T03:22:11.526Z,-8.28
2022-12-15T03:24:57.316Z,-8.27
2022-12-15T03:27:44.215Z,-8.45
2022-12-15T03:30:29.518Z,-8.30
2022-12-15T03:33:14.908Z,-8.23
2022-12-15T03:36:00.732Z,-8.34
2022-12-15T03:38:46.128Z,-8.36
2022-12-15T03:41:31.500Z,-8.54
2022-12-15T03:44:16.835Z,-8.62
2022-12-15T03:47:03.824Z,-8.40
2022-12-15T03:49:49.391Z,-8.21
2022-12-15T03:52:35.998Z,-8.12
2022-12-15T03:55:22.645Z,-8.08
2022-12-15T03:58:08.002Z,-8.05
2022-12-15T04:00:53.596Z,-8.24
2022-12-15T04:03:39.528Z,-8.03
2022-12-15T04:06:24.900Z,-8.04
2022-12-15T04:09:10.223Z,-8.00
2022-12-15T04:11:55.496Z,-8.06
2022-12-15T04:14:42.448Z,-7.86
2022-12-15T04:17:27.938Z,-7.80
2022-12-15T04:20:13.273Z,-7.72
2022-12-15T04:22:59.558Z,-7.66
2022-12-15T04:26:03.605Z,-7.73
2022-12-15T04:29:07.346Z,-7.75
2022-12-15T04:32:12.038Z,-7.57
2022-12-15T04:35:15.824Z,-7.67
2022-12-15T04:38:20.425Z,-7.62
2022-12-15T04:41:24.714Z,-7.50
2022-12-15T04:44:30.184Z,-7.42
2022-12-15T04:47:34.221Z,-7.61
2022-12-15T04:50:38.039Z,-7.64
2022-12-15T04:53:42.198Z,-7.58
2022-12-15T04:56:46.373Z,-7.60
2022-12-15T04:59:53.905Z,-7.46
2022-12-15T05:02:57.831Z,-7.47
2022-12-15T05:06:01.968Z,-7.60
2022-12-15T05:09:05.927Z,-7.57
2022-12-15T05:12:10.084Z,-7.60
2022-12-15T05:15:14.102Z,-7.52
2022-12-15T05:18:17.999Z,-7.71
2022-12-15T05:21:22.062Z,-7.63
2022-12-15T05:24:26.558Z,-7.54
2022-12-15T05:27:30.766Z,-7.53
2022-12-15T05:30:34.874Z,-7.34
2022-12-15T05:33:20.602Z,-7.43
2022-12-15T05:36:06.611Z,-7.57
2022-12-15T05:38:52.627Z,-7.46
2022-12-15T05:41:38.238Z,-7.58
2022-12-15T05:44:24.927Z,-7.50
2022-12-15T05:47:11.728Z,-7.35
2022-12-15T05:49:57.098Z,-7.49
2022-12-15T05:52:46.290Z,-7.52
2022-12-15T05:55:34.761Z,-7.21
2022-12-15T05:58:20.234Z,-7.38
2022-12-15T06:01:09.269Z,-7.37
2022-12-15T06:03:55.105Z,-7.46
2022-12-15T06:06:41.392Z,-7.27
2022-12-15T06:09:26.851Z,-7.44
2022-12-15T06:12:12.258Z,-7.49
2022-12-15T18:28:31.581Z,-2.57
2022-12-15T18:31:20.006Z,-2.46
2022-12-15T18:34:12.730Z,-2.50
2022-12-15T18:36:58.016Z,-2.46
2022-12-15T18:39:43.675Z,-2.40
2022-12-15T18:42:29.291Z,-2.43
2022-12-15T18:45:25.870Z,-2.39
2022-12-15T18:48:19.027Z,-2.36
2022-12-15T18:51:20.197Z,-2.49
2022-12-15T18:54:06.023Z,-2.42
2022-12-15T18:56:51.633Z,-2.64
2022-12-15T18:59:37.157Z,-2.65
2022-12-15T19:02:22.732Z,-2.70
2022-12-15T19:05:27.084Z,-2.78
2022-12-15T19:08:18.237Z,-2.65
2022-12-15T19:11:21.083Z,-2.96
2022-12-15T19:14:33.347Z,-2.92
2022-12-15T19:17:40.033Z,-2.96
2022-12-15T19:20:44.023Z,-3.09
2022-12-15T19:23:30.002Z,-2.72
2022-12-15T19:26:15.587Z,-2.86
2022-12-15T19:29:01.134Z,-2.80
2022-12-15T19:31:46.950Z,-2.87
2022-12-15T19:34:33.410Z,-2.82
2022-12-15T19:37:18.845Z,-2.70
2022-12-15T19:40:06.167Z,-2.76
2022-12-15T19:42:52.860Z,-2.89
2022-12-15T19:45:40.867Z,-2.79
2022-12-15T19:48:26.301Z,-3.01
2022-12-15T19:51:14.626Z,-2.87
2022-12-15T19:54:00.927Z,-3.20
2022-12-15T19:56:47.389Z,-3.09
2022-12-15T19:59:32.951Z,-3.16
2022-12-15T20:02:20.479Z,-3.39
2022-12-15T20:05:06.307Z,-3.31
2022-12-15T20:07:53.249Z,-3.39
2022-12-15T20:10:39.056Z,-3.43
2022-12-15T20:13:26.366Z,-3.40
2022-12-15T20:16:11.740Z,-3.30
2022-12-15T20:18:57.145Z,-3.43
2022-12-15T20:21:42.812Z,-3.33
2022-12-15T20:24:29.934Z,-3.53
2022-12-15T20:27:18.078Z,-3.56
2022-12-15T20:30:04.316Z,-3.63
2022-12-15T20:32:49.605Z,-3.76
2022-12-15T20:35:36.445Z,-3.95
2022-12-15T20:38:32.389Z,-3.79
2022-12-15T20:41:21.606Z,-3.95
2022-12-15T20:44:12.935Z,-3.93
2022-12-15T20:46:58.400Z,-3.86
2022-12-15T20:49:44.839Z,-3.84
2022-12-15T20:52:30.411Z,-4.02
2022-12-15T20:55:16.074Z,-4.04
2022-12-15T20:58:01.445Z,-4.13
2022-12-15T21:00:48.431Z,-4.23
2022-12-15T21:03:37.202Z,-4.25
2022-12-15T21:06:25.089Z,-4.48
2022-12-15T21:09:14.493Z,-4.19
2022-12-15T21:12:03.182Z,-4.16
2022-12-15T21:14:54.145Z,-4.15
2022-12-15T21:17:41.951Z,-4.22
2022-12-15T21:20:27.517Z,-4.21
2022-12-15T21:23:19.584Z,-4.08
2022-12-15T21:26:05.057Z,-4.38
2022-12-15T21:28:54.214Z,-4.50
2022-12-15T21:31:40.138Z,-4.77
2022-12-15T21:34:25.541Z,-4.75
2022-12-15T21:37:26.723Z,-4.83
2022-12-15T21:40:23.963Z,-4.99
2022-12-15T21:43:11.560Z,-4.99
2022-12-15T21:45:57.911Z,-5.05
2022-12-15T21:49:02.945Z,-4.85
2022-12-15T21:52:00.004Z,-4.62
2022-12-15T21:54:45.656Z,-4.61
2022-12-15T21:57:30.952Z,-4.83
2022-12-15T22:00:18.046Z,-4.61
2022-12-15T22:03:03.899Z,-4.71
2022-12-15T22:05:49.554Z,-4.71
2022-12-15T22:08:35.842Z,-4.70
2022-12-15T22:11:30.001Z,-4.62
2022-12-15T22:14:32.967Z,-4.98
2022-12-15T22:17:20.918Z,-5.01
2022-12-15T22:20:14.933Z,-4.95
2022-12-15T22:23:00.210Z,-5.12
2022-12-15T22:25:47.406Z,-4.89
2022-12-15T22:28:33.949Z,-4.84
2022-12-15T22:31:19.639Z,-5.01
2022-12-15T22:34:17.156Z,-4.92
2022-12-15T22:37:02.553Z,-5.00
2022-12-15T22:39:49.438Z,-5.26
2022-12-15T22:42:39.634Z,-5.07
2022-12-15T22:45:25.568Z,-5.04
2022-12-15T22:48:14.488Z,-5.05
2022-12-15T22:51:01.115Z,-5.25
2022-12-15T22:53:46.851Z,-5.33
2022-12-15T22:56:37.751Z,-5.31
2022-12-15T22:59:30.107Z,-5.54
2022-12-15T23:02:15.696Z,-5.49
2022-12-15T23:05:01.499Z,-5.38
2022-12-15T23:07:47.005Z,-5.39
2022-12-15T23:10:51.101Z,-5.41
2022-12-15T23:13:37.410Z,-5.51
2022-12-15T23:16:22.821Z,-5.57
2022-12-15T23:19:08.896Z,-5.64
2022-12-15T23:21:54.694Z,-5.66
2022-12-15T23:24:40.676Z,-5.81
2022-12-15T23:27:26.237Z,-5.80
2022-12-15T23:30:12.723Z,-5.73
2022-12-15T23:32:58.047Z,-5.79
2022-12-15T23:35:43.784Z,-5.88
2022-12-15T23:38:29.526Z,-5.78
2022-12-15T23:41:17.170Z,-5.74
2022-12-15T23:44:02.803Z,-5.78
2022-12-15T23:46:48.582Z,-5.79
2022-12-15T23:49:34.360Z,-5.75
2022-12-15T23:52:19.858Z,-5.83
2022-12-15T23:55:07.930Z,-5.61
2022-12-15T23:57:57.799Z,-5.53
